createdAt,value
2023-01-08T00:00:09.490Z,0
2023-01-08T00:01:09.532Z,0
2023-01-08T00:02:09.497Z,0
2023-01-08T00:03:09.573Z,0
2023-01-08T00:04:09.763Z,0
2023-01-08T00:05:09.497Z,0
2023-01-08T00:06:09.507Z,0
2023-01-08T00:07:09.593Z,0
2023-01-08T00:08:09.500Z,0
2023-01-08T00:09:09.676Z,0
2023-01-08T00:10:09.486Z,0
2023-01-08T00:11:09.502Z,0
2023-01-08T00:12:09.493Z,0
2023-01-08T00:13:09.529Z,0
2023-01-08T00:14:09.503Z,0
2023-01-08T00:15:09.502Z,0
2023-01-08T00:16:09.537Z,0
2023-01-08T00:17:09.503Z,0
2023-01-08T00:18:09.536Z,0
2023-01-08T00:19:09.497Z,0
2023-01-08T00:20:09.500Z,0
2023-01-08T00:21:09.513Z,0
2023-01-08T00:22:09.696Z,0
2023-01-08T00:23:09.520Z,0
2023-01-08T00:24:09.504Z,0
2023-01-08T00:25:09.513Z,0
2023-01-08T00:26:09.495Z,0
2023-01-08T00:27:09.495Z,0
2023-01-08T00:28:09.523Z,0
2023-01-08T00:29:09.494Z,0
2023-01-08T00:30:09.521Z,0
2023-01-08T00:31:09.535Z,0
2023-01-08T00:32:09.495Z,0
2023-01-08T00:33:09.533Z,0
2023-01-08T00:34:09.508Z,0
2023-01-08T00:35:09.494Z,0
2023-01-08T00:36:09.574Z,0
2023-01-08T00:37:09.497Z,0
2023-01-08T00:38:09.494Z,0
2023-01-08T00:39:09.573Z,0
2023-01-08T00:40:09.636Z,0
2023-01-08T00:41:09.782Z,0
2023-01-08T00:42:09.831Z,0
2023-01-08T00:43:09.496Z,0
2023-01-08T00:44:09.893Z,0
2023-01-08T00:45:09.509Z,0
2023-01-08T00:46:09.541Z,0
2023-01-08T00:47:09.502Z,0
2023-01-08T00:48:09.499Z,0
2023-01-08T00:49:09.499Z,0
2023-01-08T00:50:09.501Z,0
2023-01-08T00:51:09.720Z,0
2023-01-08T00:52:09.522Z,0
2023-01-08T00:53:09.494Z,0
2023-01-08T00:54:09.500Z,0
2023-01-08T00:55:09.527Z,0
2023-01-08T00:56:09.528Z,0
2023-01-08T00:57:09.538Z,0
2023-01-08T00:58:09.537Z,0
2023-01-08T00:59:09.496Z,0
2023-01-08T01:00:09.503Z,0
2023-01-08T01:01:09.651Z,0
2023-01-08T01:02:09.634Z,0
2023-01-08T01:03:09.507Z,0
2023-01-08T01:04:09.576Z,0
2023-01-08T01:05:09.606Z,0
2023-01-08T01:06:09.505Z,0
2023-01-08T01:07:09.504Z,0
2023-01-08T01:08:09.504Z,0
2023-01-08T01:09:09.524Z,0
2023-01-08T01:10:09.489Z,0
2023-01-08T01:11:09.516Z,0
2023-01-08T01:12:09.497Z,0
2023-01-08T01:13:09.526Z,0
2023-01-08T01:14:09.505Z,0
2023-01-08T01:15:09.518Z,0
2023-01-08T01:16:09.505Z,0
2023-01-08T01:17:09.515Z,0
2023-01-08T01:18:09.493Z,0
2023-01-08T01:19:09.507Z,0
2023-01-08T01:20:09.519Z,0
2023-01-08T01:21:09.504Z,0
2023-01-08T01:22:09.500Z,0
2023-01-08T01:23:09.496Z,0
2023-01-08T01:24:09.578Z,0
2023-01-08T01:25:09.517Z,0
2023-01-08T01:26:09.609Z,0
2023-01-08T01:27:09.503Z,0
2023-01-08T01:28:09.670Z,0
2023-01-08T01:29:09.501Z,0
2023-01-08T01:30:09.494Z,0
2023-01-08T01:31:09.560Z,0
2023-01-08T01:32:09.508Z,0
2023-01-08T01:33:09.523Z,0
2023-01-08T01:34:09.528Z,0
2023-01-08T01:35:09.495Z,0
2023-01-08T01:36:09.500Z,0
2023-01-08T01:37:09.512Z,0
2023-01-08T01:38:09.503Z,0
2023-01-08T01:39:09.519Z,0
2023-01-08T01:40:09.497Z,0
2023-01-08T01:41:09.504Z,0
2023-01-08T01:42:09.495Z,0
2023-01-08T01:43:09.515Z,0
2023-01-08T01:44:09.506Z,0
2023-01-08T01:45:09.502Z,0
2023-01-08T01:46:09.525Z,0
2023-01-08T01:47:09.595Z,0
2023-01-08T01:48:09.499Z,0
2023-01-08T01:49:09.501Z,0
2023-01-08T01:50:09.502Z,0
2023-01-08T01:51:09.513Z,0
2023-01-08T01:52:09.500Z,0
2023-01-08T01:53:09.517Z,0
2023-01-08T01:54:09.516Z,0
2023-01-08T01:55:09.504Z,0
2023-01-08T01:56:09.500Z,0
2023-01-08T01:57:09.502Z,0
2023-01-08T01:58:09.508Z,0
2023-01-08T01:59:09.488Z,0
2023-01-08T02:00:09.503Z,0
2023-01-08T02:01:09.586Z,0
2023-01-08T02:02:09.665Z,0
2023-01-08T02:03:09.503Z,0
2023-01-08T02:04:09.581Z,0
2023-01-08T02:05:09.511Z,0
2023-01-08T02:06:09.505Z,0
2023-01-08T02:07:09.493Z,0
2023-01-08T02:08:09.512Z,0
2023-01-08T02:09:09.493Z,0
2023-01-08T02:10:09.492Z,0
2023-01-08T02:11:09.497Z,0
2023-01-08T02:12:09.497Z,0
2023-01-08T02:13:09.500Z,0
2023-01-08T02:14:09.498Z,0
2023-01-08T02:15:09.513Z,0
2023-01-08T02:16:09.502Z,0
2023-01-08T02:17:09.506Z,0
2023-01-08T02:18:09.527Z,0
2023-01-08T02:19:09.515Z,0
2023-01-08T02:20:09.504Z,0
2023-01-08T02:21:09.512Z,0
2023-01-08T02:22:09.501Z,0
2023-01-08T02:23:09.493Z,0
2023-01-08T02:24:09.514Z,0
2023-01-08T02:25:09.502Z,0
2023-01-08T02:26:09.492Z,0
2023-01-08T02:27:09.499Z,0
2023-01-08T02:28:09.499Z,0
2023-01-08T02:29:09.507Z,0
2023-01-08T02:30:09.512Z,0
2023-01-08T02:31:09.555Z,0
2023-01-08T02:32:09.528Z,0
2023-01-08T02:33:09.499Z,0
2023-01-08T02:34:09.503Z,0
2023-01-08T02:35:09.527Z,0
2023-01-08T02:36:09.508Z,0
2023-01-08T02:37:09.506Z,0
2023-01-08T02:38:09.503Z,0
2023-01-08T02:39:09.495Z,0
2023-01-08T02:40:09.510Z,0
2023-01-08T02:41:09.510Z,0
2023-01-08T02:42:09.765Z,0
2023-01-08T02:43:09.519Z,0
2023-01-08T02:44:09.494Z,0
2023-01-08T02:45:09.495Z,0
2023-01-08T02:46:09.583Z,0
2023-01-08T02:47:09.505Z,0
2023-01-08T02:48:09.493Z,0
2023-01-08T02:49:09.504Z,0
2023-01-08T02:50:09.530Z,0
2023-01-08T02:51:09.499Z,0
2023-01-08T02:52:09.504Z,0
2023-01-08T02:53:09.498Z,0
2023-01-08T02:54:09.494Z,0
2023-01-08T02:55:09.581Z,0
2023-01-08T02:56:09.939Z,0
2023-01-08T02:57:10.084Z,0
2023-01-08T02:58:09.705Z,0
2023-01-08T02:59:09.502Z,0
2023-01-08T03:00:09.745Z,0
2023-01-08T03:01:09.607Z,0
2023-01-08T03:02:09.895Z,0
2023-01-08T03:03:09.595Z,0
2023-01-08T03:04:09.823Z,0
2023-01-08T03:05:09.494Z,0
2023-01-08T03:06:09.504Z,0
2023-01-08T03:07:09.521Z,0
2023-01-08T03:08:09.614Z,0
2023-01-08T03:09:09.785Z,0
2023-01-08T03:10:09.675Z,0
2023-01-08T03:11:10.374Z,0
2023-01-08T03:12:09.491Z,0
2023-01-08T03:13:09.696Z,0
2023-01-08T03:14:09.527Z,0
2023-01-08T03:15:09.504Z,0
2023-01-08T03:16:09.527Z,0
2023-01-08T03:17:09.502Z,0
2023-01-08T03:18:09.499Z,0
2023-01-08T03:19:09.517Z,0
2023-01-08T03:20:09.503Z,0
2023-01-08T03:21:09.542Z,0
2023-01-08T03:22:09.501Z,0
2023-01-08T03:23:09.529Z,0
2023-01-08T03:24:09.586Z,0
2023-01-08T03:25:09.517Z,0
2023-01-08T03:26:09.520Z,0
2023-01-08T03:27:09.508Z,0
2023-01-08T03:28:09.500Z,0
2023-01-08T03:29:09.491Z,0
2023-01-08T03:30:09.498Z,0
2023-01-08T03:31:09.559Z,0
2023-01-08T03:32:09.496Z,0
2023-01-08T03:33:09.493Z,0
2023-01-08T03:34:09.505Z,0
2023-01-08T03:35:09.514Z,0
2023-01-08T03:36:09.504Z,0
2023-01-08T03:37:09.513Z,0
2023-01-08T03:38:09.529Z,0
2023-01-08T03:39:09.519Z,0
2023-01-08T03:40:09.561Z,0
2023-01-08T03:41:09.516Z,0
2023-01-08T03:42:09.499Z,0
2023-01-08T03:43:09.516Z,0
2023-01-08T03:44:09.494Z,0
2023-01-08T03:45:09.685Z,0
2023-01-08T03:46:09.550Z,0
2023-01-08T03:47:09.521Z,0
2023-01-08T03:48:09.534Z,0
2023-01-08T03:49:09.504Z,0
2023-01-08T03:50:09.500Z,0
2023-01-08T03:51:09.525Z,0
2023-01-08T03:52:09.696Z,0
2023-01-08T03:53:09.536Z,0
2023-01-08T03:54:09.503Z,0
2023-01-08T03:55:09.510Z,0
2023-01-08T03:56:09.526Z,0
2023-01-08T03:57:09.497Z,0
2023-01-08T03:58:09.519Z,0
2023-01-08T03:59:09.504Z,0
2023-01-08T04:00:09.494Z,0
2023-01-08T04:01:09.590Z,0
2023-01-08T04:02:09.658Z,0
2023-01-08T04:03:09.541Z,0
2023-01-08T04:04:09.579Z,0
2023-01-08T04:05:09.509Z,0
2023-01-08T04:06:09.498Z,0
2023-01-08T04:07:09.502Z,0
2023-01-08T04:08:09.519Z,0
2023-01-08T04:09:09.522Z,0
2023-01-08T04:10:09.505Z,0
2023-01-08T04:11:09.508Z,0
2023-01-08T04:12:09.495Z,0
2023-01-08T04:13:09.546Z,0
2023-01-08T04:14:09.505Z,0
2023-01-08T04:15:09.500Z,0
2023-01-08T04:16:09.557Z,0
2023-01-08T04:17:09.489Z,0
2023-01-08T04:18:09.495Z,0
2023-01-08T04:19:09.496Z,0
2023-01-08T04:20:09.505Z,0
2023-01-08T04:21:09.521Z,0
2023-01-08T04:22:09.502Z,0
2023-01-08T04:23:09.509Z,0
2023-01-08T04:24:09.528Z,0
2023-01-08T04:25:09.504Z,0
2023-01-08T04:26:09.512Z,0
2023-01-08T04:27:09.545Z,0
2023-01-08T04:28:09.490Z,0
2023-01-08T04:29:09.508Z,0
2023-01-08T04:30:09.517Z,0
2023-01-08T04:31:09.514Z,0
2023-01-08T04:32:09.497Z,0
2023-01-08T04:33:09.488Z,0
2023-01-08T04:34:09.499Z,0
2023-01-08T04:35:09.529Z,0
2023-01-08T04:36:09.497Z,0
2023-01-08T04:37:09.508Z,0
2023-01-08T04:38:11.525Z,0
2023-01-08T04:39:09.498Z,0
2023-01-08T04:40:09.519Z,0
2023-01-08T04:41:09.507Z,0
2023-01-08T04:42:09.524Z,0
2023-01-08T04:43:09.510Z,0
2023-01-08T04:44:09.503Z,0
2023-01-08T04:45:09.523Z,0
2023-01-08T04:46:09.624Z,0
2023-01-08T04:47:09.510Z,0
2023-01-08T04:48:09.499Z,0
2023-01-08T04:49:09.510Z,0
2023-01-08T04:50:09.511Z,0
2023-01-08T04:51:09.498Z,0
2023-01-08T04:52:09.501Z,0
2023-01-08T04:53:09.543Z,0
2023-01-08T04:54:09.504Z,0
2023-01-08T04:55:09.514Z,0
2023-01-08T04:56:09.504Z,0
2023-01-08T04:57:09.535Z,0
2023-01-08T04:58:09.502Z,0
2023-01-08T04:59:09.543Z,0
2023-01-08T05:00:09.776Z,0
2023-01-08T05:01:09.834Z,0
2023-01-08T05:02:09.625Z,0
2023-01-08T05:03:09.794Z,0
2023-01-08T05:04:09.500Z,0
2023-01-08T05:05:09.508Z,0
2023-01-08T05:06:09.514Z,0
2023-01-08T05:07:09.508Z,0
2023-01-08T05:08:09.516Z,0
2023-01-08T05:09:09.509Z,0
2023-01-08T05:10:09.494Z,0
2023-01-08T05:11:09.497Z,0
2023-01-08T05:12:09.493Z,0
2023-01-08T05:13:09.510Z,0
2023-01-08T05:14:09.504Z,0
2023-01-08T05:15:09.514Z,0
2023-01-08T05:16:09.551Z,0
2023-01-08T05:17:09.508Z,0
2023-01-08T05:18:09.503Z,0
2023-01-08T05:19:09.513Z,0
2023-01-08T05:20:09.517Z,0
2023-01-08T05:21:09.504Z,0
2023-01-08T05:22:09.495Z,0
2023-01-08T05:23:09.501Z,0
2023-01-08T05:24:09.511Z,0
2023-01-08T05:25:09.495Z,0
2023-01-08T05:26:09.495Z,0
2023-01-08T05:27:09.500Z,0
2023-01-08T05:28:09.510Z,0
2023-01-08T05:29:09.505Z,0
2023-01-08T05:30:09.490Z,0
2023-01-08T05:31:09.561Z,0
2023-01-08T05:32:09.728Z,0
2023-01-08T05:33:09.500Z,0
2023-01-08T05:34:09.501Z,0
2023-01-08T05:35:09.504Z,0
2023-01-08T05:36:09.511Z,0
2023-01-08T05:37:09.515Z,0
2023-01-08T05:38:09.495Z,0
2023-01-08T05:39:09.509Z,0
2023-01-08T05:40:09.508Z,0
2023-01-08T05:41:09.491Z,0
2023-01-08T05:42:09.500Z,0
2023-01-08T05:43:09.502Z,0
2023-01-08T05:44:09.505Z,0
2023-01-08T05:45:09.508Z,0
2023-01-08T05:46:09.536Z,0
2023-01-08T05:47:09.499Z,0
2023-01-08T05:48:09.504Z,0
2023-01-08T05:49:09.499Z,0
2023-01-08T05:50:09.511Z,0
2023-01-08T05:51:09.537Z,0
2023-01-08T05:52:09.508Z,0
2023-01-08T05:53:09.494Z,0
2023-01-08T05:54:09.494Z,0
2023-01-08T05:55:09.500Z,0
2023-01-08T05:56:09.706Z,0
2023-01-08T05:57:09.500Z,0
2023-01-08T05:58:09.499Z,0
2023-01-08T05:59:09.505Z,0
2023-01-08T06:00:09.493Z,0
2023-01-08T06:01:09.608Z,0
2023-01-08T06:02:09.523Z,0
2023-01-08T06:03:09.607Z,0
2023-01-08T06:04:09.559Z,0
2023-01-08T06:05:09.502Z,0
2023-01-08T06:06:09.508Z,0
2023-01-08T06:07:09.518Z,0
2023-01-08T06:08:09.553Z,0
2023-01-08T06:09:09.506Z,0
2023-01-08T06:10:09.527Z,0
2023-01-08T06:11:09.503Z,0
2023-01-08T06:12:09.491Z,0
2023-01-08T06:13:09.529Z,0
2023-01-08T06:14:09.506Z,0
2023-01-08T06:15:09.498Z,0
2023-01-08T06:16:09.714Z,0
2023-01-08T06:17:09.836Z,0
2023-01-08T06:18:09.508Z,0
2023-01-08T06:19:09.502Z,0
2023-01-08T06:20:09.496Z,0
2023-01-08T06:21:09.495Z,0
2023-01-08T06:22:09.518Z,0
2023-01-08T06:23:09.513Z,0
2023-01-08T06:24:09.491Z,0
2023-01-08T06:25:09.506Z,0
2023-01-08T06:26:09.505Z,0
2023-01-08T06:27:09.508Z,0
2023-01-08T06:28:09.516Z,0
2023-01-08T06:29:09.496Z,0
2023-01-08T06:30:09.868Z,0
2023-01-08T06:31:10.209Z,0
2023-01-08T06:32:09.907Z,0
2023-01-08T06:33:09.855Z,0
2023-01-08T06:34:10.113Z,0
2023-01-08T06:35:09.523Z,0
2023-01-08T06:36:09.520Z,0
2023-01-08T06:37:09.682Z,0
2023-01-08T06:38:10.056Z,0
2023-01-08T06:39:10.356Z,0
2023-01-08T06:40:09.528Z,0
2023-01-08T06:41:09.501Z,0
2023-01-08T06:42:09.622Z,0
2023-01-08T06:43:09.843Z,0
2023-01-08T06:44:09.655Z,0
2023-01-08T06:45:09.875Z,0
2023-01-08T06:46:09.811Z,0.23
2023-01-08T06:47:09.525Z,0
2023-01-08T06:48:09.877Z,0
2023-01-08T06:49:09.510Z,0
2023-01-08T06:50:09.628Z,0
2023-01-08T06:51:09.518Z,0
2023-01-08T06:52:09.515Z,0.23
2023-01-08T06:53:09.498Z,0.23
2023-01-08T06:54:10.133Z,0.46
2023-01-08T06:55:09.506Z,0.46
2023-01-08T06:56:09.501Z,0.69
2023-01-08T06:57:09.509Z,0.69
2023-01-08T06:58:09.498Z,0.92
2023-01-08T06:59:09.497Z,0.92
2023-01-08T07:00:09.515Z,1.38
2023-01-08T07:01:09.527Z,1.84
2023-01-08T07:02:09.656Z,2.3
2023-01-08T07:03:09.570Z,2.99
2023-01-08T07:04:09.503Z,3.68
2023-01-08T07:05:09.508Z,4.37
2023-01-08T07:06:09.684Z,5.29
2023-01-08T07:07:09.697Z,6.44
2023-01-08T07:08:09.499Z,7.59
2023-01-08T07:09:09.516Z,8.97
2023-01-08T07:10:09.488Z,39.17
2023-01-08T07:11:09.511Z,12.5
2023-01-08T07:12:09.500Z,15
2023-01-08T07:13:09.498Z,17.5
2023-01-08T07:14:09.549Z,20
2023-01-08T07:15:09.593Z,24.17
2023-01-08T07:16:09.539Z,28.33
2023-01-08T07:17:09.620Z,32.5
2023-01-08T07:18:09.527Z,36.67
2023-01-08T07:19:09.510Z,41.67
2023-01-08T07:20:09.506Z,47.5
2023-01-08T07:21:09.922Z,53.33
2023-01-08T07:22:09.509Z,59.17
2023-01-08T07:23:09.542Z,65
2023-01-08T07:24:09.501Z,71.67
2023-01-08T07:25:09.507Z,79.17
2023-01-08T07:26:09.510Z,85.83
2023-01-08T07:27:09.590Z,93.33
2023-01-08T07:28:09.589Z,100.83
2023-01-08T07:29:09.511Z,107.5
2023-01-08T07:30:15.295Z,115.83
2023-01-08T07:31:09.574Z,125.83
2023-01-08T07:32:09.511Z,135
2023-01-08T07:33:09.498Z,143.33
2023-01-08T07:34:09.592Z,151.67
2023-01-08T07:35:09.508Z,158.33
2023-01-08T07:36:09.494Z,165
2023-01-08T07:37:09.523Z,171.67
2023-01-08T07:38:09.516Z,180
2023-01-08T07:39:09.499Z,189.17
2023-01-08T07:40:09.505Z,200.83
2023-01-08T07:41:09.519Z,213.33
2023-01-08T07:42:09.488Z,225.83
2023-01-08T07:43:09.516Z,240.83
2023-01-08T07:44:09.588Z,256.67
2023-01-08T07:45:09.511Z,276.67
2023-01-08T07:46:09.503Z,302.5
2023-01-08T07:47:09.602Z,328.33
2023-01-08T07:48:09.502Z,348.33
2023-01-08T07:49:09.498Z,365.83
2023-01-08T07:50:09.491Z,384.17
2023-01-08T07:51:09.608Z,402.5
2023-01-08T07:52:09.607Z,420
2023-01-08T07:53:09.505Z,436.67
2023-01-08T07:54:09.523Z,455.83
2023-01-08T07:55:09.493Z,474.17
2023-01-08T07:56:09.498Z,497.5
2023-01-08T07:57:09.587Z,524.17
2023-01-08T07:58:09.508Z,553.33
2023-01-08T07:59:09.506Z,591.67
2023-01-08T08:00:09.504Z,635
2023-01-08T08:01:09.532Z,685
2023-01-08T08:02:09.674Z,748.33
2023-01-08T08:03:09.601Z,822.5
2023-01-08T08:04:09.503Z,894.17
2023-01-08T08:05:09.706Z,959.17
2023-01-08T08:06:09.610Z,1019.17
2023-01-08T08:07:09.518Z,1070
2023-01-08T08:08:09.515Z,1082.5
2023-01-08T08:09:09.505Z,1065
2023-01-08T08:10:09.609Z,1021.67
2023-01-08T08:11:09.610Z,963.33
2023-01-08T08:12:09.504Z,925.83
2023-01-08T08:13:09.498Z,925
2023-01-08T08:14:09.510Z,912.5
2023-01-08T08:15:09.513Z,906.67
2023-01-08T08:16:09.635Z,890.83
2023-01-08T08:17:09.579Z,836.67
2023-01-08T08:18:09.494Z,740.83
2023-01-08T08:19:09.496Z,636.67
2023-01-08T08:20:09.596Z,655
2023-01-08T08:21:09.599Z,659.17
2023-01-08T08:22:09.596Z,686.67
2023-01-08T08:23:09.510Z,739.17
2023-01-08T08:24:09.508Z,771.67
2023-01-08T08:25:09.600Z,729.17
2023-01-08T08:26:09.622Z,672.5
2023-01-08T08:27:09.575Z,665.83
2023-01-08T08:28:09.580Z,712.5
2023-01-08T08:29:09.602Z,795
2023-01-08T08:30:09.593Z,875
2023-01-08T08:31:09.634Z,895.83
2023-01-08T08:32:09.634Z,941.67
2023-01-08T08:33:10.087Z,935.83
2023-01-08T08:34:10.328Z,771.67
2023-01-08T08:35:09.871Z,612.5
2023-01-08T08:36:09.577Z,410
2023-01-08T08:37:09.819Z,390
2023-01-08T08:38:09.586Z,434.17
2023-01-08T08:39:09.628Z,494.17
2023-01-08T08:40:09.566Z,638.33
2023-01-08T08:41:09.591Z,900
2023-01-08T08:42:09.592Z,1065.83
2023-01-08T08:43:09.595Z,1120.83
2023-01-08T08:44:09.592Z,1169.17
2023-01-08T08:45:09.597Z,1274.17
2023-01-08T08:46:09.591Z,1476.67
2023-01-08T08:47:09.574Z,1629.17
2023-01-08T08:48:09.680Z,1681.67
2023-01-08T08:49:09.609Z,1668.33
2023-01-08T08:50:09.592Z,1645
2023-01-08T08:51:09.588Z,1593.33
2023-01-08T08:52:09.602Z,1555.83
2023-01-08T08:53:09.592Z,1550
2023-01-08T08:54:09.593Z,1543.33
2023-01-08T08:55:09.592Z,1511.67
2023-01-08T08:56:09.596Z,1472.5
2023-01-08T08:57:09.598Z,1412.5
2023-01-08T08:58:09.590Z,1340
2023-01-08T08:59:09.586Z,1271.67
2023-01-08T09:00:09.588Z,1220.83
2023-01-08T09:01:09.679Z,1184.17
2023-01-08T09:02:09.781Z,1139.17
2023-01-08T09:03:09.687Z,1094.17
2023-01-08T09:04:09.596Z,1065.83
2023-01-08T09:05:09.586Z,1070.83
2023-01-08T09:06:09.583Z,1086.67
2023-01-08T09:07:09.582Z,1087.5
2023-01-08T09:08:09.588Z,1085
2023-01-08T09:09:09.595Z,1095.83
2023-01-08T09:10:09.586Z,1104.17
2023-01-08T09:11:09.582Z,1089.17
2023-01-08T09:12:09.581Z,1074.17
2023-01-08T09:13:09.587Z,1046.67
2023-01-08T09:14:09.583Z,1005.83
2023-01-08T09:15:09.593Z,962.5
2023-01-08T09:16:09.659Z,946.67
2023-01-08T09:17:09.679Z,959.17
2023-01-08T09:18:09.586Z,969.17
2023-01-08T09:19:09.577Z,958.33
2023-01-08T09:20:09.586Z,923.33
2023-01-08T09:21:09.589Z,888.33
2023-01-08T09:22:09.582Z,895.83
2023-01-08T09:23:09.575Z,962.5
2023-01-08T09:24:09.578Z,1035.83
2023-01-08T09:25:09.581Z,1055.83
2023-01-08T09:26:09.574Z,1032.5
2023-01-08T09:27:11.103Z,1030.83
2023-01-08T09:28:09.581Z,1072.5
2023-01-08T09:29:09.575Z,1140
2023-01-08T09:30:09.580Z,1199.17
2023-01-08T09:31:09.707Z,1271.67
2023-01-08T09:32:09.591Z,1357.5
2023-01-08T09:33:09.580Z,1435
2023-01-08T09:34:09.575Z,1536.67
2023-01-08T09:35:09.579Z,1652.5
2023-01-08T09:36:09.575Z,1705.83
2023-01-08T09:37:09.595Z,1760.83
2023-01-08T09:38:09.579Z,1853.33
2023-01-08T09:39:09.572Z,1909.17
2023-01-08T09:40:09.570Z,1968.33
2023-01-08T09:41:09.577Z,1989.17
2023-01-08T09:42:09.567Z,2065
2023-01-08T09:43:09.573Z,2226.67
2023-01-08T09:44:09.574Z,2402.5
2023-01-08T09:45:09.581Z,2675.83
2023-01-08T09:46:09.576Z,2972.5
2023-01-08T09:47:09.569Z,3264.17
2023-01-08T09:48:09.578Z,3540
2023-01-08T09:49:09.572Z,3766.67
2023-01-08T09:50:09.634Z,4052.5
2023-01-08T09:51:09.831Z,4105.83
2023-01-08T09:52:09.571Z,3906.67
2023-01-08T09:53:09.580Z,3736.67
2023-01-08T09:54:09.580Z,3571.67
2023-01-08T09:55:09.579Z,3392.5
2023-01-08T09:56:10.985Z,3505.83
2023-01-08T09:57:09.585Z,3648.33
2023-01-08T09:58:09.578Z,3994.17
2023-01-08T09:59:09.740Z,4674.17
2023-01-08T10:00:09.583Z,5269.17
2023-01-08T10:01:10.172Z,6050
2023-01-08T10:02:10.334Z,6687.5
2023-01-08T10:03:10.103Z,7452.5
2023-01-08T10:04:09.849Z,7134.17
2023-01-08T10:05:10.153Z,6815.83
2023-01-08T10:06:09.566Z,8245
2023-01-08T10:07:09.584Z,6379.17
2023-01-08T10:08:09.564Z,5268.33
2023-01-08T10:09:09.622Z,4473.33
2023-01-08T10:10:09.572Z,5256.67
2023-01-08T10:11:09.597Z,4467.5
2023-01-08T10:12:09.839Z,5075
2023-01-08T10:13:10.244Z,5504.17
2023-01-08T10:14:09.567Z,5505
2023-01-08T10:15:09.593Z,6681.67
2023-01-08T10:16:09.612Z,5886.67
2023-01-08T10:17:11.475Z,5337.5
2023-01-08T10:18:09.793Z,5513.33
2023-01-08T10:19:10.043Z,3160
2023-01-08T10:20:09.910Z,2882.5
2023-01-08T10:21:09.825Z,3048.33
2023-01-08T10:22:09.978Z,2733.33
2023-01-08T10:23:09.840Z,2885.83
2023-01-08T10:24:09.585Z,3100.83
2023-01-08T10:25:09.589Z,2878.33
2023-01-08T10:26:09.562Z,4686.67
2023-01-08T10:27:09.561Z,3480.83
2023-01-08T10:28:09.588Z,3308.33
2023-01-08T10:29:09.559Z,3508.33
2023-01-08T10:30:09.587Z,7375
2023-01-08T10:31:09.618Z,9340.83
2023-01-08T10:32:09.560Z,8720.83
2023-01-08T10:33:09.563Z,13281.67
2023-01-08T10:34:09.573Z,13694.17
2023-01-08T10:35:09.593Z,8117.5
2023-01-08T10:36:09.560Z,7489.17
2023-01-08T10:37:09.556Z,7392.5
2023-01-08T10:38:09.554Z,7179.17
2023-01-08T10:39:09.583Z,6250.83
2023-01-08T10:40:09.593Z,5689.17
2023-01-08T10:41:09.562Z,5375
2023-01-08T10:42:09.559Z,4644.17
2023-01-08T10:43:09.769Z,4180
2023-01-08T10:44:09.556Z,4416.67
2023-01-08T10:45:09.581Z,5305.83
2023-01-08T10:46:09.623Z,6054.17
2023-01-08T10:47:09.573Z,6160
2023-01-08T10:48:09.559Z,5646.67
2023-01-08T10:49:09.554Z,6511.67
2023-01-08T10:50:09.582Z,4625
2023-01-08T10:51:09.590Z,4858.33
2023-01-08T10:52:09.558Z,11866.67
2023-01-08T10:53:09.552Z,9034.17
2023-01-08T10:54:09.554Z,6707.5
2023-01-08T10:55:09.685Z,12515
2023-01-08T10:56:09.873Z,13089.17
2023-01-08T10:57:09.558Z,7940.83
2023-01-08T10:58:09.550Z,14092.5
2023-01-08T10:59:09.552Z,15105.83
2023-01-08T11:00:09.551Z,16157.5
2023-01-08T11:01:09.647Z,16695.83
2023-01-08T11:02:09.594Z,15882.5
2023-01-08T11:03:09.555Z,9615
2023-01-08T11:04:09.564Z,6610.83
2023-01-08T11:05:09.552Z,6215
2023-01-08T11:06:09.549Z,5911.67
2023-01-08T11:07:09.548Z,6980.83
2023-01-08T11:08:09.555Z,15701.67
2023-01-08T11:09:09.547Z,12227.5
2023-01-08T11:10:10.038Z,9766.67
2023-01-08T11:11:09.549Z,16320
2023-01-08T11:12:09.547Z,15295.83
2023-01-08T11:13:09.580Z,13737.5
2023-01-08T11:14:09.574Z,12369.17
2023-01-08T11:15:09.547Z,11523.33
2023-01-08T11:16:09.619Z,11060
2023-01-08T11:17:09.552Z,11028.33
2023-01-08T11:18:09.548Z,11093.33
2023-01-08T11:19:09.573Z,11540.83
2023-01-08T11:20:09.569Z,7548.33
2023-01-08T11:21:09.580Z,9664.17
2023-01-08T11:22:09.552Z,10517.5
2023-01-08T11:23:09.545Z,11907.5
2023-01-08T11:24:09.576Z,8730
2023-01-08T11:25:09.546Z,11131.67
2023-01-08T11:26:09.587Z,10264.17
2023-01-08T11:27:09.549Z,8855.83
2023-01-08T11:28:09.570Z,10567.5
2023-01-08T11:29:09.573Z,10908.33
2023-01-08T11:30:09.544Z,6010.83
2023-01-08T11:31:09.576Z,5934.17
2023-01-08T11:32:09.570Z,6185.83
2023-01-08T11:33:09.547Z,3818.33
2023-01-08T11:34:09.573Z,4116.67
2023-01-08T11:35:09.577Z,6715
2023-01-08T11:36:09.667Z,10732.5
2023-01-08T11:37:09.544Z,10632.5
2023-01-08T11:38:09.578Z,10648.33
2023-01-08T11:39:09.568Z,10645.83
2023-01-08T11:40:09.573Z,10663.33
2023-01-08T11:41:09.548Z,10658.33
2023-01-08T11:42:09.554Z,10662.5
2023-01-08T11:43:09.536Z,10668.33
2023-01-08T11:44:09.556Z,10641.67
2023-01-08T11:45:09.563Z,10641.67
2023-01-08T11:46:09.608Z,10665.83
2023-01-08T11:47:09.565Z,10665
2023-01-08T11:48:09.563Z,10655.83
2023-01-08T11:49:09.567Z,10652.5
2023-01-08T11:50:09.572Z,10656.67
2023-01-08T11:51:09.558Z,10648.33
2023-01-08T11:52:09.661Z,10646.67
2023-01-08T11:53:09.564Z,10641.67
2023-01-08T11:54:09.566Z,10619.17
2023-01-08T11:55:09.571Z,10621.67
2023-01-08T11:56:09.543Z,10603.33
2023-01-08T11:57:09.568Z,10620.83
2023-01-08T11:58:09.603Z,10599.17
2023-01-08T11:59:09.559Z,10624.17
2023-01-08T12:00:09.593Z,10636.67
2023-01-08T12:01:09.549Z,10651.67
2023-01-08T12:02:09.591Z,10808.33
2023-01-08T12:03:09.614Z,10765
2023-01-08T12:04:09.571Z,10778.33
2023-01-08T12:05:09.562Z,10895
2023-01-08T12:06:09.599Z,10845.83
2023-01-08T12:07:09.960Z,9391.67
2023-01-08T12:08:10.185Z,10791.67
2023-01-08T12:09:10.366Z,10795.83
2023-01-08T12:10:09.565Z,10805.83
2023-01-08T12:11:09.574Z,10875.83
2023-01-08T12:12:09.865Z,10885
2023-01-08T12:13:09.565Z,10896.67
2023-01-08T12:14:09.560Z,10977.5
2023-01-08T12:15:09.574Z,11089.17
2023-01-08T12:16:09.587Z,11290
2023-01-08T12:17:09.558Z,8006.67
2023-01-08T12:18:09.559Z,3882.5
2023-01-08T12:19:09.555Z,3582.5
2023-01-08T12:20:09.568Z,3867.5
2023-01-08T12:21:09.556Z,5345
2023-01-08T12:22:09.638Z,8649.17
2023-01-08T12:23:09.559Z,7565.83
2023-01-08T12:24:11.902Z,11340
2023-01-08T12:25:09.563Z,8663.33
2023-01-08T12:26:09.555Z,9972.5
2023-01-08T12:27:09.573Z,5968.33
2023-01-08T12:28:09.563Z,4269.17
2023-01-08T12:29:09.571Z,3763.33
2023-01-08T12:30:09.591Z,3640
2023-01-08T12:31:09.567Z,3943.33
2023-01-08T12:32:09.881Z,4555.83
2023-01-08T12:33:09.995Z,4765.83
2023-01-08T12:34:09.843Z,4806.67
2023-01-08T12:35:09.544Z,4856.67
2023-01-08T12:36:09.559Z,4898.33
2023-01-08T12:37:09.570Z,5261.67
2023-01-08T12:38:09.569Z,5710
2023-01-08T12:39:09.556Z,5782.5
2023-01-08T12:40:09.549Z,5479.17
2023-01-08T12:41:09.555Z,4740.83
2023-01-08T12:42:09.561Z,4317.5
2023-01-08T12:43:09.568Z,4369.17
2023-01-08T12:44:09.578Z,4877.5
2023-01-08T12:45:09.560Z,5410
2023-01-08T12:46:09.626Z,5728.33
2023-01-08T12:47:09.561Z,5891.67
2023-01-08T12:48:09.559Z,5854.17
2023-01-08T12:49:09.587Z,5625.83
2023-01-08T12:50:09.655Z,5726.67
2023-01-08T12:51:09.573Z,6697.5
2023-01-08T12:52:09.561Z,8656.67
2023-01-08T12:53:09.551Z,12575.83
2023-01-08T12:54:09.561Z,8075.83
2023-01-08T12:55:09.562Z,7743.33
2023-01-08T12:56:09.562Z,7688.33
2023-01-08T12:57:09.556Z,9985.83
2023-01-08T12:58:09.550Z,7179.17
2023-01-08T12:59:09.556Z,9349.17
2023-01-08T13:00:09.580Z,7585.83
2023-01-08T13:01:09.596Z,18455
2023-01-08T13:02:09.618Z,7121.67
2023-01-08T13:03:09.752Z,5822.5
2023-01-08T13:04:09.500Z,5425
2023-01-08T13:05:09.590Z,6018.33
2023-01-08T13:06:09.561Z,12245
2023-01-08T13:07:09.558Z,17580.83
2023-01-08T13:08:09.572Z,17259.17
2023-01-08T13:09:09.565Z,17217.5
2023-01-08T13:10:09.575Z,17162.5
2023-01-08T13:11:09.591Z,6404.17
2023-01-08T13:12:09.552Z,13557.5
2023-01-08T13:13:09.555Z,6120.83
2023-01-08T13:14:09.596Z,8585.83
2023-01-08T13:15:09.603Z,13028.33
2023-01-08T13:16:09.830Z,12994.17
2023-01-08T13:17:09.553Z,12900
2023-01-08T13:18:09.596Z,12250
2023-01-08T13:19:09.576Z,12516.67
2023-01-08T13:20:09.626Z,12334.17
2023-01-08T13:21:09.600Z,12220
2023-01-08T13:22:09.581Z,12094.17
2023-01-08T13:23:09.574Z,12072.5
2023-01-08T13:24:09.571Z,12008.33
2023-01-08T13:25:09.585Z,11941.67
2023-01-08T13:26:09.573Z,11910.83
2023-01-08T13:27:09.578Z,12155
2023-01-08T13:28:09.563Z,11751.67
2023-01-08T13:29:09.607Z,11865.83
2023-01-08T13:30:09.668Z,11967.5